Mound City, IL (62963)

2:15 PM CDT on April 28, 2015 (GMT -0500)
Cairo Regional | | Change Station
CLOSE
Current Station
Airport
Location: Cairo,
Elevation: 322 ft
Nearby Weather Stations
Active Advisory: Flood Warning

Elev 322 ft 37.06 °N, 89.22 °W | Updated 20 minutes ago

Clear
Clear
61 °F
Feels Like 61 °F
N
5
Wind Variable Wind from NE

Today
High -- | Low -- °F
--% Chance of Precip.
Yesterday
High -- | Low -- °F
Precip. -- in
6:05 AM 7:42 PM
Waxing Gibbous, 75% visible
Pressure 30.03 in
Visibility 10.0 miles
Clouds Clear
Dew Point 41 °F
Humidity 47%
Rainfall 0.00 in
Snow Depth Not available.
UV 10 out of 12
Pollen 9.60 out of 12
Air Quality Not available.
Flu Activity Regional
METAR KCIR 281855Z AUTO 04004KT 10SM CLR 16/05 A3003 RMK AO2 T01630049

More Conditions Fewer Conditions

Pressure 30.03 in
Visibility 10.0 miles
Clouds Clear
Dew Point 41 °F
Humidity 47%
Rainfall 0.00 in
Snow Depth Not available.
UV 10 out of 12
Pollen 9.60 out of 12
Air Quality Not available.
Flu Activity Regional
METAR KCIR 281855Z AUTO 04004KT 10SM CLR 16/05 A3003 RMK AO2 T01630049

More Conditions Fewer Conditions

10-Day Weather Forecast

Almanac

Astronomy

Apr. 28, 2015 Rise Set
Actual Time
Civil Twilight
Nautical Twilight
Astronomical Twilight
Moon
Length of Visible Light
Length of Day
Tomorrow will be .
, % of the Moon is Illuminated

Today's Extremes

State Highs State Lows

Community

WunderPhotos

Upload Photos

1,817,733 photos uploaded!

WunderBlogs® & News

Nearby

Air Quality

  Air Quality AQ Index Pollutant
Not available.

Snow Depth

Station Depth Elevation

Earthquake Activity

City Distance Mag. Time & Date
Minimum magnitude displayed is 2.5.

Coastal Water Temperatures

Place Temperature

Stations

Nearby Weather Stations

Station Location Temp. Windchill Dew Point Humidity Wind Precip. Elev Updated Type
                   
Flood Warning
Statement as of 11:23 AM CDT on April 28, 2015

The Flood Warning continues for
the Ohio River at Grand Chain dam.
* Until Thursday morning.
* At 8:00 am Tuesday the stage was 44.8 feet.
* Flood stage is 42.0 feet.
* Minor flooding is occurring and minor flooding is forecast.
* Forecast... the river will continue to fall to below flood stage by
early Thursday morning.


Lat... Lon 3727 8908 3717 8916 3709 8907 3714 8888
      3727 8884




1123 am CDT Tue Apr 28 2015

The Flood Warning continues for
the Ohio River at Cairo.
* Until Wednesday evening.
* At 11:00 am Tuesday the stage was 42.6 feet.
* Flood stage is 40.0 feet.
* Minor flooding is occurring and minor flooding is forecast.
* Forecast... the river will continue to fall to below flood stage by
tomorrow afternoon.


Lat... Lon 3709 8946 3651 8918 3680 8900 3709 8907
      3717 8916